Lake Mills, WI

3:33 PM CST on March 01, 2015 (GMT -0600)
Middleton | Change Station
CLOSE
Current Station
Airport
Location: Middleton,
Elevation: 928 ft
Nearby Weather Stations

Elev 928 ft 43.12 °N, 89.53 °W | Updated 18 minutes ago

Partly Cloudy
Partly Cloudy
29 °F
Feels Like 18 °F
N
14
Wind Variable Wind from WSW
Gusts 22 mph

Today
High -- | Low -- °F
--% Chance of Precip.
Yesterday
High -- | Low -- °F
Precip. -- in
6:32 AM 5:44 PM
Waxing Gibbous, 87% visible
Pressure 30.21 in
Visibility 10.0 miles
Clouds Mostly Cloudy 2500 ft
Mostly Cloudy 9500 ft
Windchill 18 °F
Dew Point 16 °F
Humidity 58%
Rainfall 0.00 in
Snow Depth Not available.
UV 1 out of 12
Pollen .50 out of 12
Air Quality Not available.
Flu Activity Not available.
METAR KC29 012115Z AUTO 25012G19KT 10SM BKN025 BKN095 M02/M09 A3021 RMK AO1 T10161090

More Conditions Fewer Conditions

Pressure 30.21 in
Visibility 10.0 miles
Clouds Mostly Cloudy 2500 ft
Mostly Cloudy 9500 ft
Windchill 18 °F
Dew Point 16 °F
Humidity 58%
Rainfall 0.00 in
Snow Depth Not available.
UV 1 out of 12
Pollen .50 out of 12
Air Quality Not available.
Flu Activity Not available.
METAR KC29 012115Z AUTO 25012G19KT 10SM BKN025 BKN095 M02/M09 A3021 RMK AO1 T10161090

More Conditions Fewer Conditions

10-Day Weather Forecast

Almanac

Astronomy

Mar. 01, 2015 Rise Set
Actual Time
Civil Twilight
Nautical Twilight
Astronomical Twilight
Moon
Length of Visible Light
Length of Day
Tomorrow will be .
, % of the Moon is Illuminated

Today's Extremes

State Highs State Lows

Community

WunderPhotos

Upload Photos

1,801,574 photos uploaded!

WunderBlogs® & News

Nearby

Air Quality

  Air Quality AQ Index Pollutant
Not available.

Snow Depth

Station Depth Elevation

Earthquake Activity

City Distance Mag. Time & Date
Minimum magnitude displayed is 2.5.

Coastal Water Temperatures

Place Temperature

Nearby Weather Stations